Time;durP1;ratioP1;P1;durP2;ratioP2;P2;SDS_P1;SDS_P2;PMS_P1;PMS_P2;Temp;Humidity;BMP_temperature;BMP_pressure;BME280_temperature;BME280_humidity;BME280_pressure;Samples;Min_cycle;Max_cycle;Signal;HPM_P1;HPM_P2
2023/10/25 00:01:23;;;;;;;11.20;4.60;;;;;;;9.15;100.00;100092.41;5056570;28;20041;-94
2023/10/25 00:03:48;;;;;;;9.68;4.65;;;;;;;9.10;100.00;100088.91;5040217;28;20023;-96
2023/10/25 00:06:14;;;;;;;11.45;4.47;;;;;;;9.08;100.00;100082.72;5057052;28;20029;-96
2023/10/25 00:08:39;;;;;;;10.65;4.40;;;;;;;9.18;100.00;100105.63;5043370;28;20052;-96
2023/10/25 00:11:06;;;;;;;11.68;4.70;;;;;;;9.16;100.00;100104.72;5035378;28;20517;-96
2023/10/25 00:13:32;;;;;;;9.73;4.30;;;;;;;9.01;100.00;100085.34;5033542;28;20033;-96
2023/10/25 00:15:58;;;;;;;10.95;4.38;;;;;;;8.97;100.00;100075.66;5033169;28;20552;-96
2023/10/25 00:18:24;;;;;;;10.57;4.32;;;;;;;9.00;100.00;100093.25;5034331;28;20029;-96
2023/10/25 00:20:50;;;;;;;9.73;4.10;;;;;;;8.95;100.00;100073.88;5036125;28;20030;-96
2023/10/25 00:23:15;;;;;;;8.93;3.97;;;;;;;9.05;100.00;100095.91;5036264;28;20060;-96
2023/10/25 00:25:41;;;;;;;10.18;4.03;;;;;;;9.04;100.00;100087.13;5037648;28;20037;-96
2023/10/25 00:28:06;;;;;;;9.65;3.83;;;;;;;8.88;100.00;100058.94;5037330;28;20091;-96
2023/10/25 00:30:32;;;;;;;8.70;3.42;;;;;;;9.01;100.00;100093.25;5035956;28;20037;-96
2023/10/25 00:32:57;;;;;;;8.80;3.47;;;;;;;8.90;100.00;100071.22;5036721;28;20049;-96
2023/10/25 00:35:22;;;;;;;7.72;3.53;;;;;;;8.90;100.00;100075.59;5035436;28;20033;-94
2023/10/25 00:37:48;;;;;;;9.68;3.80;;;;;;;8.97;100.00;100095.84;5035508;28;20116;-96
2023/10/25 00:40:13;;;;;;;9.73;3.80;;;;;;;8.92;100.00;100087.94;5035245;28;20063;-96
2023/10/25 00:42:39;;;;;;;8.80;3.45;;;;;;;8.90;100.00;100089.66;5018525;28;20037;-96
2023/10/25 00:45:04;;;;;;;7.78;3.35;;;;;;;8.93;100.00;100096.72;5034939;28;20539;-96
2023/10/25 00:47:30;;;;;;;8.52;3.60;;;;;;;8.88;100.00;100091.41;5035018;28;20099;-96
2023/10/25 00:49:56;;;;;;;9.40;3.42;;;;;;;8.71;100.00;100070.25;5034917;28;20470;-95
2023/10/25 00:52:21;;;;;;;4.95;3.50;;;;;;;8.76;100.00;100075.53;5018404;28;20439;-95
2023/10/25 00:54:47;;;;;;;16.02;3.10;;;;;;;8.86;100.00;100092.28;5035700;28;20093;-96
2023/10/25 00:57:14;;;;;;;8.00;3.75;;;;;;;8.71;100.00;100079.91;5036553;28;20087;-96
2023/10/25 00:59:40;;;;;;;5.72;3.00;;;;;;;8.57;100.00;100057.88;5035397;28;20033;-96
2023/10/25 01:02:07;;;;;;;6.55;3.30;;;;;;;8.77;100.00;100090.47;5036458;28;20033;-96
2023/10/25 01:04:33;;;;;;;6.05;3.13;;;;;;;8.81;100.00;100076.44;5035584;28;20068;-96
2023/10/25 01:06:59;;;;;;;11.98;3.53;;;;;;;8.89;100.00;100080.00;5036380;28;20041;-96
2023/10/25 01:09:25;;;;;;;9.75;3.38;;;;;;;8.86;100.00;100071.19;5018626;28;20041;-96
2023/10/25 01:11:50;;;;;;;10.65;3.22;;;;;;;8.86;100.00;100074.72;5018179;28;20474;-96
2023/10/25 01:14:15;;;;;;;7.10;3.05;;;;;;;8.74;100.00;100058.88;5034232;28;20470;-96
2023/10/25 01:16:41;;;;;;;5.32;2.97;;;;;;;8.58;100.00;100028.91;5035337;28;20095;-96
2023/10/25 01:19:06;;;;;;;8.57;3.20;;;;;;;8.85;100.00;100080.84;5018008;28;20033;-95
2023/10/25 01:21:32;;;;;;;7.32;3.05;;;;;;;8.76;100.00;100050.06;5034352;28;20091;-95
2023/10/25 01:23:59;;;;;;;8.82;3.20;;;;;;;8.87;100.00;100079.13;5035608;28;20389;-96
2023/10/25 01:26:25;;;;;;;8.63;3.20;;;;;;;8.85;100.00;100069.44;5035300;28;20528;-95
2023/10/25 01:28:50;;;;;;;7.10;2.85;;;;;;;8.76;100.00;100047.44;5038303;28;20033;-96
2023/10/25 01:31:16;;;;;;;5.72;3.20;;;;;;;8.85;100.00;100064.16;5046996;28;20037;-96
2023/10/25 01:33:43;;;;;;;8.95;3.10;;;;;;;8.74;100.00;100030.78;5051784;28;20087;-96
2023/10/25 01:36:09;;;;;;;6.90;3.30;;;;;;;8.88;100.00;100044.00;5050336;28;20124;-96
2023/10/25 01:38:34;;;;;;;8.55;2.97;;;;;;;8.93;100.00;100036.13;5049336;28;20489;-96
2023/10/25 01:41:00;;;;;;;8.48;3.03;;;;;;;9.01;100.00;100042.28;5052217;28;20048;-96
2023/10/25 01:43:25;;;;;;;10.38;3.55;;;;;;;8.99;100.00;100026.50;5022578;28;20128;-96
2023/10/25 01:45:50;;;;;;;10.75;3.35;;;;;;;8.74;100.00;99982.47;5037433;28;20037;-96
2023/10/25 01:48:16;;;;;;;6.95;2.72;;;;;;;9.07;100.00;100030.91;5037035;28;20033;-96
2023/10/25 01:50:41;;;;;;;8.20;2.72;;;;;;;9.08;100.00;100030.91;5039682;28;20038;-96
2023/10/25 01:53:06;;;;;;;5.47;2.60;;;;;;;9.02;100.00;100018.56;5042384;28;20474;-96
2023/10/25 01:55:32;;;;;;;5.07;2.85;;;;;;;8.98;100.00;100011.53;5034482;28;20430;-96
2023/10/25 01:57:57;;;;;;;6.47;2.80;;;;;;;9.07;100.00;100026.50;5035746;28;20036;-96
2023/10/25 02:00:23;;;;;;;7.63;2.92;;;;;;;8.78;100.00;99976.34;5017539;28;20029;-96
2023/10/25 02:02:48;;;;;;;7.13;2.80;;;;;;;8.82;100.00;99983.38;5033839;28;20087;-96
2023/10/25 02:05:13;;;;;;;8.40;3.20;;;;;;;8.91;100.00;100001.00;5034399;28;20462;-96
2023/10/25 02:07:39;;;;;;;7.82;2.88;;;;;;;8.92;100.00;99994.84;5035238;28;20103;-96
2023/10/25 02:10:05;;;;;;;7.93;2.95;;;;;;;8.93;100.00;99991.31;5033134;28;20120;-95
2023/10/25 02:12:30;;;;;;;6.63;2.78;;;;;;;9.02;100.00;100008.03;5034675;28;20116;-96
2023/10/25 02:14:55;;;;;;;8.52;2.90;;;;;;;9.07;100.00;100004.53;5033428;28;20029;-95
2023/10/25 02:17:22;;;;;;;7.57;3.00;;;;;;;9.02;100.00;100001.88;5033955;28;20065;-95
2023/10/25 02:19:47;;;;;;;8.23;3.35;;;;;;;8.99;100.00;100001.88;5017106;28;20036;-96
2023/10/25 02:22:12;;;;;;;9.20;3.22;;;;;;;8.93;100.00;100000.09;5034337;28;20096;-94
2023/10/25 02:24:38;;;;;;;9.45;3.17;;;;;;;8.85;100.00;99998.31;5033321;28;20049;-95
2023/10/25 02:27:03;;;;;;;10.50;3.72;;;;;;;8.81;100.00;99994.78;5033175;28;20104;-96
2023/10/25 02:29:31;;;;;;;9.20;3.28;;;;;;;8.57;100.00;99960.47;5033333;28;20036;-96
2023/10/25 02:31:56;;;;;;;7.57;3.50;;;;;;;8.72;100.00;99992.13;5034135;28;20041;-96
2023/10/25 02:34:24;;;;;;;6.82;3.13;;;;;;;8.74;100.00;99982.47;5032878;28;20032;-95
2023/10/25 02:36:49;;;;;;;7.63;3.20;;;;;;;8.67;100.00;99978.06;5033152;28;20033;-94
2023/10/25 02:39:14;;;;;;;7.07;3.17;;;;;;;8.81;100.00;99978.97;5033928;28;20107;-95
2023/10/25 02:41:40;;;;;;;7.43;3.10;;;;;;;8.82;100.00;99978.09;5032474;28;20033;-95
2023/10/25 02:44:05;;;;;;;6.60;3.30;;;;;;;8.79;100.00;99964.94;5033826;28;20061;-95
2023/10/25 02:46:31;;;;;;;5.25;2.90;;;;;;;8.88;100.00;99978.13;5032827;28;20065;-95
2023/10/25 02:48:56;;;;;;;7.25;3.13;;;;;;;8.83;100.00;99947.38;5032949;28;20360;-94
2023/10/25 02:51:21;;;;;;;7.15;2.97;;;;;;;8.89;100.00;99950.03;5037687;28;20041;-95
2023/10/25 02:53:47;;;;;;;7.68;3.45;;;;;;;8.78;100.00;99928.94;5036346;28;20041;-96
2023/10/25 02:56:12;;;;;;;5.65;3.10;;;;;;;8.84;100.00;99939.47;5035367;28;20029;-96
2023/10/25 02:58:38;;;;;;;6.68;2.90;;;;;;;8.93;100.00;99947.41;5034888;28;20033;-96
2023/10/25 03:01:03;;;;;;;6.90;2.67;;;;;;;9.01;100.00;99960.63;5034407;28;20033;-96
2023/10/25 03:03:34;;;;;;;7.80;2.88;;;;;;;8.99;100.00;99947.44;5034414;28;20037;-96
2023/10/25 03:06:00;;;;;;;6.35;2.92;;;;;;;8.82;100.00;99919.28;5034652;28;20060;-89
2023/10/25 03:08:26;;;;;;;6.05;2.83;;;;;;;8.80;100.00;99921.91;5034836;28;20237;-96
2023/10/25 03:10:52;;;;;;;6.95;2.97;;;;;;;8.74;100.00;99906.09;5035176;28;20055;-96
2023/10/25 03:13:18;;;;;;;6.78;2.83;;;;;;;8.95;100.00;99935.13;5036059;28;20450;-96
2023/10/25 03:15:43;;;;;;;10.52;3.20;;;;;;;8.96;100.00;99928.09;5033422;28;20049;-96
2023/10/25 03:18:09;;;;;;;6.93;3.03;;;;;;;8.84;100.00;99910.50;5033800;28;20040;-96
2023/10/25 03:20:34;;;;;;;4.88;2.60;;;;;;;8.96;100.00;99920.19;5034159;28;20061;-96
2023/10/25 03:23:00;;;;;;;7.07;3.00;;;;;;;8.97;100.00;99922.84;5032767;28;20489;-90
2023/10/25 03:25:25;;;;;;;7.78;2.90;;;;;;;8.99;100.00;99918.47;5041716;28;20033;-96
2023/10/25 03:27:51;;;;;;;7.25;3.00;;;;;;;8.90;100.00;99897.34;5038885;28;20042;-96
2023/10/25 03:30:17;;;;;;;7.75;2.88;;;;;;;8.77;100.00;99875.34;5035108;28;20041;-96
2023/10/25 03:32:43;;;;;;;10.40;2.88;;;;;;;8.93;100.00;99901.75;5033965;28;20152;-96
2023/10/25 03:35:09;;;;;;;6.35;3.05;;;;;;;8.99;100.00;99909.66;5033832;28;20112;-96
2023/10/25 03:37:39;;;;;;;8.60;2.80;;;;;;;8.99;100.00;99907.91;5033359;28;20030;-94
2023/10/25 03:40:07;;;;;;;8.07;2.88;;;;;;;9.00;100.00;99900.88;5033633;28;20466;-96
2023/10/25 03:42:32;;;;;;;6.95;2.90;;;;;;;9.08;100.00;99906.16;5032204;28;20037;-96
2023/10/25 03:44:57;;;;;;;5.10;2.60;;;;;;;9.07;100.00;99907.91;5033621;28;20362;-96
2023/10/25 03:47:23;;;;;;;6.93;2.97;;;;;;;9.11;100.00;99911.44;5016691;28;20034;-95
2023/10/25 03:49:52;;;;;;;8.07;3.00;;;;;;;9.04;100.00;99897.38;5033113;28;20029;-95
2023/10/25 03:52:17;;;;;;;11.48;3.50;;;;;;;8.90;100.00;99864.84;5032333;28;20076;-96
2023/10/25 03:54:42;;;;;;;8.73;3.45;;;;;;;8.97;100.00;99878.03;5034582;28;20026;-95
2023/10/25 03:57:10;;;;;;;9.27;3.35;;;;;;;9.06;100.00;99885.06;5036513;28;20030;-96
2023/10/25 03:59:36;;;;;;;8.10;3.17;;;;;;;8.99;100.00;99873.66;5036953;28;20050;-95
2023/10/25 04:02:01;;;;;;;12.40;3.90;;;;;;;9.08;100.00;99882.44;5053185;28;20040;-95
2023/10/25 04:04:27;;;;;;;7.80;3.60;;;;;;;9.09;100.00;99886.84;5037107;28;20120;-96
2023/10/25 04:06:52;;;;;;;11.93;3.65;;;;;;;9.08;100.00;99898.25;5036138;28;20481;-96
2023/10/25 04:09:17;;;;;;;12.40;3.75;;;;;;;8.97;100.00;99871.91;5036353;28;20083;-95
2023/10/25 04:11:43;;;;;;;10.80;4.07;;;;;;;9.11;100.00;99885.06;5035960;28;20417;-96
2023/10/25 04:14:08;;;;;;;10.35;3.65;;;;;;;8.96;100.00;99856.97;5036129;28;20039;-96
2023/10/25 04:16:33;;;;;;;8.93;3.90;;;;;;;9.06;100.00;99873.66;5036742;28;20053;-89
2023/10/25 04:18:59;;;;;;;10.32;4.20;;;;;;;9.17;100.00;99888.63;5020734;28;20116;-95
2023/10/25 04:21:24;;;;;;;8.82;3.65;;;;;;;9.17;100.00;99883.34;5037726;28;20040;-96
2023/10/25 04:23:49;;;;;;;10.35;3.85;;;;;;;9.16;100.00;99880.69;5036258;28;20083;-95
2023/10/25 04:26:15;;;;;;;12.35;3.90;;;;;;;9.15;100.00;99879.81;5019048;28;20037;-96
2023/10/25 04:28:43;;;;;;;9.52;3.75;;;;;;;8.96;100.00;99852.56;5036641;28;20088;-96
2023/10/25 04:31:11;;;;;;;12.70;4.15;;;;;;;8.86;100.00;99836.75;5038315;28;20076;-96
2023/10/25 04:33:38;;;;;;;13.27;3.55;;;;;;;9.06;100.00;99871.03;5037862;28;20033;-96
2023/10/25 04:36:04;;;;;;;9.98;3.92;;;;;;;8.96;100.00;99856.97;5037053;28;20029;-95
2023/10/25 04:38:30;;;;;;;7.90;3.50;;;;;;;8.91;100.00;99849.06;5035381;28;20025;-94
2023/10/25 04:40:56;;;;;;;8.93;3.20;;;;;;;9.01;100.00;99856.09;5036361;28;20094;-95
2023/10/25 04:43:21;;;;;;;11.20;3.50;;;;;;;9.06;100.00;99865.75;5035418;28;20226;-95
2023/10/25 04:45:47;;;;;;;6.88;3.30;;;;;;;9.09;100.00;99871.03;5047574;28;20036;-96
2023/10/25 04:48:12;;;;;;;9.23;3.60;;;;;;;8.84;100.00;99823.56;5050002;28;20030;-95
2023/10/25 04:50:38;;;;;;;8.70;3.17;;;;;;;9.05;100.00;99845.56;5048682;28;20480;-94
2023/10/25 04:53:04;;;;;;;10.88;3.58;;;;;;;9.15;100.00;99855.22;5047673;28;20034;-96
2023/10/25 04:55:31;;;;;;;9.73;3.10;;;;;;;9.17;100.00;99848.22;5044439;28;20034;-96
2023/10/25 04:57:57;;;;;;;8.07;3.40;;;;;;;9.16;100.00;99854.34;5057183;28;20041;-94
2023/10/25 05:00:22;;;;;;;6.68;2.95;;;;;;;9.12;100.00;99845.56;5040230;28;20033;-95
2023/10/25 05:02:48;;;;;;;10.13;3.38;;;;;;;9.00;100.00;99824.47;5036695;28;20029;-95
2023/10/25 05:05:16;;;;;;;7.05;3.22;;;;;;;9.06;100.00;99827.09;5037354;28;20037;-95
2023/10/25 05:07:42;;;;;;;6.40;3.20;;;;;;;9.06;100.00;99813.94;5039415;28;20120;-95
2023/10/25 05:10:09;;;;;;;7.55;3.40;;;;;;;9.17;100.00;99825.34;5040083;28;20057;-95
2023/10/25 05:12:41;;;;;;;7.07;3.40;;;;;;;9.17;100.00;99830.63;5037470;28;20034;-95
2023/10/25 05:15:08;;;;;;;10.05;3.33;;;;;;;9.17;100.00;99822.72;5037324;28;20025;-94
2023/10/25 05:17:33;;;;;;;9.57;3.30;;;;;;;9.14;100.00;99809.53;5037268;28;20060;-96
2023/10/25 05:20:00;;;;;;;9.13;3.30;;;;;;;9.10;100.00;99794.59;5036325;28;20034;-95
2023/10/25 05:22:27;;;;;;;6.10;3.20;;;;;;;9.16;100.00;99793.72;5036056;28;20420;-95
2023/10/25 05:24:53;;;;;;;6.95;3.58;;;;;;;9.02;100.00;99772.66;5037119;28;20383;-95
2023/10/25 05:27:19;;;;;;;7.57;3.33;;;;;;;9.19;100.00;99794.59;5035843;28;20037;-95
2023/10/25 05:29:45;;;;;;;6.07;3.60;;;;;;;9.24;100.00;99799.84;5037020;28;20493;-95
2023/10/25 05:32:14;;;;;;;6.25;3.40;;;;;;;9.27;100.00;99800.75;5035501;28;20041;-95
2023/10/25 05:34:39;;;;;;;9.73;3.60;;;;;;;9.26;100.00;99796.34;5034780;28;20053;-95
2023/10/25 05:37:05;;;;;;;10.07;3.70;;;;;;;9.25;100.00;99794.63;5018762;28;20488;-95
2023/10/25 05:39:31;;;;;;;8.30;3.28;;;;;;;9.26;100.00;99780.53;5019636;28;20437;-96
2023/10/25 05:42:03;;;;;;;8.65;3.28;;;;;;;9.02;100.00;99741.91;5036518;28;20026;-95
2023/10/25 05:44:29;;;;;;;5.10;3.20;;;;;;;9.20;100.00;99780.53;5037847;28;20089;-96
2023/10/25 05:46:54;;;;;;;10.63;3.40;;;;;;;9.20;100.00;99772.63;5042222;28;20029;-95
2023/10/25 05:49:20;;;;;;;7.85;3.42;;;;;;;9.26;100.00;99772.63;5035682;28;20061;-96
2023/10/25 05:51:48;;;;;;;7.80;3.30;;;;;;;9.31;100.00;99783.16;5037825;28;20024;-95
2023/10/25 05:54:14;;;;;;;7.53;3.05;;;;;;;9.30;100.00;99775.28;5035693;28;20548;-96
2023/10/25 05:56:40;;;;;;;9.15;3.20;;;;;;;9.23;100.00;99764.72;5034718;28;20025;-94
2023/10/25 05:59:05;;;;;;;9.10;3.60;;;;;;;9.21;100.00;99755.06;5035526;28;20052;-95
2023/10/25 06:01:46;;;;;;;8.75;3.28;;;;;;;9.33;100.00;99768.22;5017165;28;20038;-95
2023/10/25 06:04:12;;;;;;;7.93;3.25;;;;;;;9.21;100.00;99750.69;5033570;28;20572;-94
2023/10/25 06:06:41;;;;;;;9.38;3.60;;;;;;;9.15;100.00;99739.25;5034729;28;20025;-95
2023/10/25 06:09:08;;;;;;;9.00;3.10;;;;;;;9.19;100.00;99741.00;5034663;28;20030;-94
2023/10/25 06:11:34;;;;;;;6.93;3.03;;;;;;;9.35;100.00;99760.31;5033184;28;20467;-95
2023/10/25 06:13:59;;;;;;;10.32;2.97;;;;;;;9.34;100.00;99761.22;5033166;28;20124;-94
2023/10/25 06:16:25;;;;;;;10.70;3.00;;;;;;;9.33;100.00;99760.31;5032293;28;20054;-94
2023/10/25 06:18:50;;;;;;;5.60;3.00;;;;;;;9.22;100.00;99744.53;5016613;28;20040;-95
2023/10/25 06:21:16;;;;;;;6.20;2.97;;;;;;;9.36;100.00;99760.31;5034270;28;20033;-94
2023/10/25 06:23:41;;;;;;;12.50;3.58;;;;;;;9.33;100.00;99757.66;5032838;28;20045;-95
2023/10/25 06:26:06;;;;;;;10.13;3.00;;;;;;;9.35;100.00;99749.78;5034066;28;20120;-95
2023/10/25 06:28:35;;;;;;;7.07;2.90;;;;;;;9.27;100.00;99741.88;5034088;28;20041;-95
2023/10/25 06:31:01;;;;;;;6.28;2.90;;;;;;;9.33;100.00;99746.25;5034739;28;20124;-95
2023/10/25 06:33:26;;;;;;;5.15;2.80;;;;;;;9.19;100.00;99720.78;5033274;28;20037;-95
2023/10/25 06:35:52;;;;;;;6.47;2.63;;;;;;;9.27;100.00;99720.78;5032847;28;20131;-94
2023/10/25 06:38:20;;;;;;;7.43;3.70;;;;;;;9.20;100.00;99700.59;5032678;28;20033;-95
2023/10/25 06:40:45;;;;;;;11.98;3.45;;;;;;;9.33;100.00;99717.25;5033568;28;20116;-95
2023/10/25 06:43:11;;;;;;;8.32;3.20;;;;;;;9.39;100.00;99725.16;5016765;28;20116;-94
2023/10/25 06:45:37;;;;;;;10.40;2.80;;;;;;;9.30;100.00;99702.34;5032482;28;20414;-94
2023/10/25 06:48:03;;;;;;;5.25;2.90;;;;;;;9.44;100.00;99719.00;5032916;28;20560;-95
2023/10/25 06:50:28;;;;;;;10.13;3.00;;;;;;;9.45;100.00;99719.84;5016198;28;20402;-95
2023/10/25 06:52:54;;;;;;;5.88;2.63;;;;;;;9.41;100.00;99708.44;5035786;28;20041;-95
2023/10/25 06:55:20;;;;;;;7.03;2.50;;;;;;;9.39;100.00;99694.41;5032641;28;20029;-95
2023/10/25 06:57:46;;;;;;;6.72;2.72;;;;;;;9.43;100.00;99692.63;5035432;28;20462;-94
2023/10/25 07:00:12;;;;;;;6.05;3.00;;;;;;;9.43;100.00;99697.91;5034109;28;20040;-95
2023/10/25 07:02:56;;;;;;;6.13;2.78;;;;;;;9.48;100.00;99693.50;5017528;28;20033;-94
2023/10/25 07:05:25;;;;;;;8.63;2.92;;;;;;;9.43;100.00;99676.81;5034813;28;20110;-93
2023/10/25 07:07:52;;;;;;;6.30;2.90;;;;;;;9.45;100.00;99678.53;5033815;28;20033;-95
2023/10/25 07:10:18;;;;;;;10.13;3.10;;;;;;;9.44;100.00;99668.88;5017746;28;20041;-94
2023/10/25 07:12:44;;;;;;;10.32;3.10;;;;;;;9.53;100.00;99678.53;5035712;28;20107;-95
2023/10/25 07:15:11;;;;;;;7.88;3.17;;;;;;;9.52;100.00;99674.13;5035349;28;20033;-96
2023/10/25 07:17:37;;;;;;;11.07;3.45;;;;;;;9.53;100.00;99671.50;5035542;28;20033;-95
2023/10/25 07:20:04;;;;;;;7.18;3.38;;;;;;;9.42;100.00;99649.56;5020803;28;20060;-96
2023/10/25 07:22:30;;;;;;;7.47;2.80;;;;;;;9.49;100.00;99653.03;5039886;28;20472;-96
2023/10/25 07:24:55;;;;;;;10.32;3.10;;;;;;;9.52;100.00;99655.69;5037380;28;20026;-94
2023/10/25 07:27:21;;;;;;;8.30;3.47;;;;;;;9.59;100.00;99661.78;5038122;28;20068;-95
2023/10/25 07:29:50;;;;;;;7.32;3.13;;;;;;;9.60;100.00;99658.28;5041061;28;20030;-95
2023/10/25 07:32:15;;;;;;;7.95;3.10;;;;;;;9.53;100.00;99657.44;5044247;28;20037;-96
2023/10/25 07:34:41;;;;;;;5.85;2.67;;;;;;;9.64;100.00;99670.59;5043680;28;20040;-96
2023/10/25 07:37:07;;;;;;;4.97;2.97;;;;;;;9.57;100.00;99653.03;5047870;28;20029;-96
2023/10/25 07:39:32;;;;;;;5.80;3.05;;;;;;;9.66;100.00;99659.13;5045604;28;20405;-95
2023/10/25 07:41:58;;;;;;;5.05;3.08;;;;;;;9.67;100.00;99660.88;5046989;28;20102;-96
2023/10/25 07:44:25;;;;;;;7.30;3.00;;;;;;;9.63;100.00;99645.06;5049296;28;20120;-93
2023/10/25 07:46:51;;;;;;;8.93;3.20;;;;;;;9.54;100.00;99624.88;5048164;28;20033;-95
2023/10/25 07:49:16;;;;;;;5.82;3.08;;;;;;;9.68;100.00;99643.31;5050499;28;20047;-94
2023/10/25 07:51:41;;;;;;;5.65;3.00;;;;;;;9.71;100.00;99641.50;5044760;28;20041;-95
2023/10/25 07:54:07;;;;;;;6.40;2.80;;;;;;;9.66;100.00;99630.13;5050827;28;20537;-95
2023/10/25 07:56:32;;;;;;;6.40;3.15;;;;;;;9.68;100.00;99622.22;5043846;28;20049;-93
2023/10/25 07:58:58;;;;;;;10.43;2.95;;;;;;;9.75;100.00;99631.81;5047894;28;20061;-94
2023/10/25 08:01:24;;;;;;;6.00;2.88;;;;;;;9.66;100.00;99606.38;5045500;28;20117;-95
2023/10/25 08:03:49;;;;;;;7.53;2.80;;;;;;;9.80;100.00;99616.84;5047078;28;20057;-93
2023/10/25 08:06:15;;;;;;;7.60;3.17;;;;;;;9.82;100.00;99608.94;5047627;28;20064;-90
2023/10/25 08:08:40;;;;;;;8.73;2.80;;;;;;;9.84;100.00;99605.38;5046933;28;20048;-94
2023/10/25 08:11:09;;;;;;;6.10;2.90;;;;;;;9.85;100.00;99598.34;5035844;28;20033;-95
2023/10/25 08:13:38;;;;;;;7.18;2.78;;;;;;;9.90;100.00;99602.72;5036601;28;20373;-94
2023/10/25 08:16:04;;;;;;;9.13;2.88;;;;;;;9.82;100.00;99586.06;5036466;28;20061;-94
2023/10/25 08:18:31;;;;;;;5.78;2.95;;;;;;;9.87;100.00;99573.72;5040114;28;20041;-94
2023/10/25 08:20:58;;;;;;;10.77;3.78;;;;;;;9.99;100.00;99583.31;5039738;28;20048;-95
2023/10/25 08:23:24;;;;;;;9.05;3.72;;;;;;;10.01;100.00;99590.31;5041272;28;20057;-95
2023/10/25 08:25:51;;;;;;;6.10;2.80;;;;;;;9.91;100.00;99558.75;5041034;28;20084;-94
2023/10/25 08:28:16;;;;;;;5.75;2.80;;;;;;;9.95;100.00;99569.25;5042282;28;20033;-90
2023/10/25 08:30:42;;;;;;;12.93;3.22;;;;;;;10.03;100.00;99571.84;5036717;28;20041;-95
2023/10/25 08:33:07;;;;;;;6.53;2.75;;;;;;;10.03;100.00;99569.22;5054734;28;20041;-95
2023/10/25 08:35:32;;;;;;;6.78;2.75;;;;;;;10.09;100.00;99569.16;5039834;28;20037;-94
2023/10/25 08:37:58;;;;;;;5.70;2.75;;;;;;;10.13;100.00;99572.66;5047837;28;20057;-96
2023/10/25 08:40:24;;;;;;;6.82;2.60;;;;;;;10.07;100.00;99556.88;5042198;28;20057;-96
2023/10/25 08:42:50;;;;;;;7.55;2.90;;;;;;;10.09;100.00;99565.63;5043497;28;20025;-95
2023/10/25 08:45:15;;;;;;;6.65;2.83;;;;;;;10.00;100.00;99541.06;5049043;28;20482;-96
2023/10/25 08:47:44;;;;;;;10.50;2.90;;;;;;;10.15;100.00;99555.00;5041380;28;20033;-94
2023/10/25 08:50:10;;;;;;;6.15;3.10;;;;;;;10.14;100.00;99548.88;5037850;28;20365;-95
2023/10/25 08:52:37;;;;;;;6.50;2.95;;;;;;;10.13;100.00;99541.84;5046992;28;20090;-95
2023/10/25 08:55:10;;;;;;;8.25;2.92;;;;;;;10.11;100.00;99533.06;5046626;28;20061;-96
2023/10/25 08:57:37;;;;;;;7.50;3.30;;;;;;;10.01;100.00;99511.13;5040600;28;20083;-96
2023/10/25 09:00:07;;;;;;;6.30;3.00;;;;;;;10.17;100.00;99538.28;5037723;28;20099;-96
2023/10/25 09:02:36;;;;;;;5.90;3.20;;;;;;;10.17;100.00;99533.00;5039363;28;20048;-96
2023/10/25 09:05:08;;;;;;;8.00;3.20;;;;;;;10.14;100.00;99517.19;5039496;28;20079;-96
2023/10/25 09:07:36;;;;;;;4.95;3.10;;;;;;;10.15;100.00;99518.97;5040616;28;20064;-96
2023/10/25 09:10:03;;;;;;;8.15;3.20;;;;;;;10.10;100.00;99494.34;5041829;28;20044;-95
2023/10/25 09:12:30;;;;;;;6.18;3.10;;;;;;;10.11;100.00;99496.13;5043608;28;20040;-96
2023/10/25 09:14:55;;;;;;;8.10;3.22;;;;;;;10.13;100.00;99489.06;5020033;28;20052;-94
2023/10/25 09:17:21;;;;;;;8.70;3.55;;;;;;;9.98;100.00;99458.41;5039361;28;20473;-95
2023/10/25 09:19:48;;;;;;;7.03;3.30;;;;;;;10.19;100.00;99510.13;5038176;28;20029;-95
2023/10/25 09:22:27;;;;;;;5.82;3.58;;;;;;;10.20;100.00;99497.81;5039797;28;20055;-96
2023/10/25 09:25:03;;;;;;;10.68;3.75;;;;;;;10.19;100.00;99491.66;5041915;28;20037;-96
2023/10/25 09:27:30;;;;;;;8.25;4.30;;;;;;;10.20;100.00;99489.88;5038026;28;20043;-95
2023/10/25 09:30:15;;;;;;;7.65;4.20;;;;;;;10.14;100.00;99484.66;5039030;28;20025;-96
2023/10/25 09:32:43;;;;;;;8.63;4.00;;;;;;;10.22;100.00;99514.50;5039630;28;20033;-96
2023/10/25 09:35:10;;;;;;;9.88;4.13;;;;;;;10.18;100.00;99503.06;5040155;28;20048;-95
2023/10/25 09:37:35;;;;;;;6.88;4.15;;;;;;;10.18;100.00;99502.22;5021884;28;20037;-95
2023/10/25 09:40:00;;;;;;;8.45;4.40;;;;;;;10.14;100.00;99489.91;5038825;28;20101;-94
2023/10/25 09:42:28;;;;;;;10.60;4.80;;;;;;;10.20;100.00;99498.69;5036599;28;20373;-92
2023/10/25 09:45:01;;;;;;;8.95;4.35;;;;;;;10.18;100.00;99487.25;5034833;28;20178;-90
2023/10/25 09:47:32;;;;;;;11.25;4.80;;;;;;;10.12;100.00;99465.31;5035909;28;20033;-91
2023/10/25 09:50:06;;;;;;;6.65;4.25;;;;;;;10.14;100.00;99466.16;5036159;28;20029;-90
2023/10/25 09:52:41;;;;;;;7.82;4.50;;;;;;;10.12;100.00;99455.63;5033534;28;20080;-90
2023/10/25 09:55:24;;;;;;;7.28;4.70;;;;;;;10.12;100.00;99457.41;5033628;28;20030;-91
2023/10/25 09:57:53;;;;;;;9.35;4.80;;;;;;;10.04;100.00;99434.59;5034202;28;20470;-91
2023/10/25 10:00:20;;;;;;;9.25;6.00;;;;;;;10.00;100.00;99432.00;5037112;28;20026;-90
2023/10/25 10:02:58;;;;;;;7.65;4.50;;;;;;;10.06;100.00;99444.25;5036384;28;20033;-90
2023/10/25 10:05:26;;;;;;;9.50;4.50;;;;;;;10.07;100.00;99449.53;5034095;28;20029;-89
2023/10/25 10:08:04;;;;;;;9.75;5.13;;;;;;;10.06;100.00;99445.13;5032636;28;20068;-88
2023/10/25 10:10:43;;;;;;;7.97;4.43;;;;;;;10.05;100.00;99440.75;5036943;28;20032;-89
2023/10/25 10:13:15;;;;;;;10.27;4.82;;;;;;;9.98;100.00;99432.03;5034225;28;20076;-89
2023/10/25 10:16:05;;;;;;;6.63;4.72;;;;;;;10.03;100.00;99437.25;5032038;28;20438;-89
2023/10/25 10:18:38;;;;;;;9.88;4.43;;;;;;;10.03;100.00;99430.22;5032725;28;20025;-89
2023/10/25 10:21:09;;;;;;;9.25;4.75;;;;;;;10.02;100.00;99420.56;5032356;28;20034;-89
2023/10/25 10:23:38;;;;;;;6.88;4.53;;;;;;;10.03;100.00;99418.78;5033902;28;20083;-90
2023/10/25 10:26:04;;;;;;;8.35;5.13;;;;;;;9.96;100.00;99404.75;5032120;28;20026;-89
2023/10/25 10:28:47;;;;;;;7.90;4.68;;;;;;;9.75;100.00;99355.72;5031926;28;20354;-90
2023/10/25 10:31:14;;;;;;;8.73;4.72;;;;;;;9.86;100.00;99363.53;5015589;28;20073;-90
2023/10/25 10:33:46;;;;;;;9.55;4.85;;;;;;;9.83;100.00;99357.41;5033675;28;20470;-89
2023/10/25 10:36:24;;;;;;;8.18;4.82;;;;;;;10.03;100.00;99385.34;5033553;28;20029;-90
2023/10/25 10:39:12;;;;;;;8.10;4.78;;;;;;;10.04;100.00;99376.53;5033987;28;20041;-93
2023/10/25 10:41:40;;;;;;;7.88;4.75;;;;;;;10.04;100.00;99375.66;5033678;28;20461;-91
2023/10/25 10:47:00;;;;;;;7.75;4.80;;;;;;;10.04;100.00;99354.56;5011834;28;20061;-60
2023/10/25 10:49:30;;;;;;;9.93;4.97;;;;;;;10.03;100.00;99351.03;5012546;28;20380;-61
2023/10/25 10:51:57;;;;;;;8.50;5.28;;;;;;;10.06;100.00;99357.16;5013112;28;20038;-61
2023/10/25 10:54:22;;;;;;;9.35;4.65;;;;;;;10.05;100.00;99343.09;5013455;28;20026;-61
2023/10/25 10:56:48;;;;;;;8.82;4.78;;;;;;;10.06;100.00;99326.38;5012927;28;20494;-61
2023/10/25 10:59:13;;;;;;;9.27;4.53;;;;;;;10.10;100.00;99343.03;5013016;28;20395;-61
2023/10/25 11:01:39;;;;;;;6.95;4.50;;;;;;;10.08;100.00;99331.66;5011801;28;20060;-61
2023/10/25 11:04:05;;;;;;;6.75;4.45;;;;;;;10.08;100.00;99327.22;5011852;28;20064;-61
2023/10/25 11:06:31;;;;;;;8.85;4.85;;;;;;;10.11;100.00;99328.97;5012975;28;20026;-61
2023/10/25 11:08:59;;;;;;;11.40;4.70;;;;;;;10.12;100.00;99317.53;5012923;28;20434;-61
2023/10/25 11:11:25;;;;;;;8.65;4.53;;;;;;;10.13;100.00;99312.22;4995361;28;20041;-61
2023/10/25 11:13:51;;;;;;;7.88;4.43;;;;;;;10.14;100.00;99305.16;5012866;28;20038;-61
2023/10/25 11:16:17;;;;;;;8.52;4.40;;;;;;;10.16;100.00;99306.91;5012643;28;20122;-61
2023/10/25 11:18:43;;;;;;;8.27;4.10;;;;;;;10.19;100.00;99311.25;5012738;28;20018;-61
2023/10/25 11:21:08;;;;;;;10.63;4.20;;;;;;;10.18;100.00;99301.59;5012780;28;20104;-61
2023/10/25 11:23:34;;;;;;;6.70;4.25;;;;;;;10.13;100.00;99285.81;5012220;28;20088;-61
2023/10/25 11:26:00;;;;;;;6.20;4.10;;;;;;;10.18;100.00;99289.25;5011764;28;20033;-61
2023/10/25 11:28:26;;;;;;;7.13;4.80;;;;;;;10.20;100.00;99278.72;5012868;28;20050;-61
2023/10/25 11:30:52;;;;;;;6.97;4.32;;;;;;;10.20;100.00;99281.34;5012940;28;20353;-61